SBOSBO SNN / EINN
Speedbird OnlineSpeedbird Online SNN / EINN

Shannon Airport
02:25 5°C

Location Shannon, Ireland
Latitude: 52.702
Longitude: -8.92482
Web Airport Website | Wikipedia
Altitude 14 Meter / 46 Feet
Distance 632 KM / 393 Miles
from London.
Time Zone UTC 0 hours (Europe/Dublin)
Codes IATA: SNN
ICAO: EINN
Currency £1 equals EUR 1.14
Runways
RunwayLength (m)Surface
05141Partial
063199Asphalt
09245Partial
13166Asphalt
187Partial
23141Partial
243199Asphalt
27245Partial
31166Asphalt
367Partial
Radio
TypeDescriptionFrequency
APPAPP120.2
ATISATIS130.95
GNDGND121.8
TWRTWR118.7
Live ATC
METAR EINN 270200Z VRB02KT 9999 OVC036 05/02 Q1036 NOSIG
TAF TAF EINN 262300Z 2700/2724 VRB03KT 9999 BKN035 PROB30 TEMPO 2703/2705 3000 BR PROB30 TEMPO 2705/2710 0500 FZFG BKN001
Weather As Of 27 Jan 2023 02:25
Description Overcast clouds
Wind 4 km/h from North (0°)
Cloud Cover 100%
Precipitation Rain: none, Snow: none
Sunrise 08:26
Sunset 17:10
Lounges The Ború Lounge, Terminal 1
Rotations During the last 90 days there were
4 flights from LHR
4 flights to LHR



Support Speedbird Online

© 2017-2023 Speedbird Online